sensor_id;sensor_type;location;lat;lon;timestamp;P1;durP1;ratioP1;P2;durP2;ratioP2
55069;SDS011;40967;52.070;8.596;2023-11-19T00:00:43;0.80;;;0.50;;
55069;SDS011;40967;52.070;8.596;2023-11-19T00:03:10;1.17;;;0.50;;
55069;SDS011;40967;52.070;8.596;2023-11-19T00:05:38;0.50;;;0.50;;
55069;SDS011;40967;52.070;8.596;2023-11-19T00:08:04;0.90;;;0.70;;
55069;SDS011;40967;52.070;8.596;2023-11-19T00:10:32;0.70;;;0.50;;
55069;SDS011;40967;52.070;8.596;2023-11-19T00:16:24;0.52;;;0.43;;
55069;SDS011;40967;52.070;8.596;2023-11-19T00:18:53;0.80;;;0.63;;
55069;SDS011;40967;52.070;8.596;2023-11-19T00:21:22;0.93;;;0.50;;
55069;SDS011;40967;52.070;8.596;2023-11-19T00:23:49;0.73;;;0.53;;
55069;SDS011;40967;52.070;8.596;2023-11-19T00:26:19;0.98;;;0.50;;
55069;SDS011;40967;52.070;8.596;2023-11-19T00:28:47;0.67;;;0.40;;
55069;SDS011;40967;52.070;8.596;2023-11-19T00:31:14;0.40;;;0.40;;
55069;SDS011;40967;52.070;8.596;2023-11-19T00:33:43;0.52;;;0.30;;
55069;SDS011;40967;52.070;8.596;2023-11-19T00:36:09;0.40;;;0.30;;
55069;SDS011;40967;52.070;8.596;2023-11-19T00:38:36;0.65;;;0.40;;
55069;SDS011;40967;52.070;8.596;2023-11-19T00:41:06;0.47;;;0.30;;
55069;SDS011;40967;52.070;8.596;2023-11-19T00:43:33;0.85;;;0.40;;
55069;SDS011;40967;52.070;8.596;2023-11-19T00:46:01;0.40;;;0.30;;
55069;SDS011;40967;52.070;8.596;2023-11-19T00:48:28;0.30;;;0.30;;
55069;SDS011;40967;52.070;8.596;2023-11-19T00:50:55;0.45;;;0.40;;
55069;SDS011;40967;52.070;8.596;2023-11-19T00:53:21;2.03;;;0.50;;
55069;SDS011;40967;52.070;8.596;2023-11-19T00:55:48;0.68;;;0.40;;
55069;SDS011;40967;52.070;8.596;2023-11-19T00:58:15;0.70;;;0.40;;
55069;SDS011;40967;52.070;8.596;2023-11-19T01:00:43;0.60;;;0.40;;
55069;SDS011;40967;52.070;8.596;2023-11-19T01:03:13;0.88;;;0.47;;
55069;SDS011;40967;52.070;8.596;2023-11-19T01:05:41;0.60;;;0.50;;
55069;SDS011;40967;52.070;8.596;2023-11-19T01:08:08;0.45;;;0.43;;
55069;SDS011;40967;52.070;8.596;2023-11-19T01:10:36;0.93;;;0.60;;
55069;SDS011;40967;52.070;8.596;2023-11-19T01:13:03;0.77;;;0.50;;
55069;SDS011;40967;52.070;8.596;2023-11-19T01:15:30;0.60;;;0.40;;
55069;SDS011;40967;52.070;8.596;2023-11-19T01:17:57;0.50;;;0.40;;
55069;SDS011;40967;52.070;8.596;2023-11-19T01:20:27;0.75;;;0.40;;
55069;SDS011;40967;52.070;8.596;2023-11-19T01:23:00;0.80;;;0.40;;
55069;SDS011;40967;52.070;8.596;2023-11-19T01:25:33;0.53;;;0.40;;
55069;SDS011;40967;52.070;8.596;2023-11-19T01:28:03;0.60;;;0.40;;
55069;SDS011;40967;52.070;8.596;2023-11-19T01:30:33;0.43;;;0.40;;
55069;SDS011;40967;52.070;8.596;2023-11-19T01:33:01;0.68;;;0.40;;
55069;SDS011;40967;52.070;8.596;2023-11-19T01:35:30;0.80;;;0.43;;
55069;SDS011;40967;52.070;8.596;2023-11-19T01:37:56;0.98;;;0.47;;
55069;SDS011;40967;52.070;8.596;2023-11-19T01:40:23;1.20;;;0.50;;
55069;SDS011;40967;52.070;8.596;2023-11-19T01:42:53;1.55;;;0.60;;
55069;SDS011;40967;52.070;8.596;2023-11-19T01:45:21;0.93;;;0.60;;
55069;SDS011;40967;52.070;8.596;2023-11-19T01:47:53;1.98;;;0.95;;
55069;SDS011;40967;52.070;8.596;2023-11-19T01:50:20;1.75;;;1.08;;
55069;SDS011;40967;52.070;8.596;2023-11-19T01:52:56;2.28;;;1.35;;
55069;SDS011;40967;52.070;8.596;2023-11-19T01:55:24;3.50;;;1.80;;
55069;SDS011;40967;52.070;8.596;2023-11-19T01:57:57;3.03;;;1.70;;
55069;SDS011;40967;52.070;8.596;2023-11-19T02:00:32;3.63;;;1.83;;
55069;SDS011;40967;52.070;8.596;2023-11-19T02:03:05;2.53;;;1.50;;
55069;SDS011;40967;52.070;8.596;2023-11-19T02:05:37;2.80;;;1.60;;
55069;SDS011;40967;52.070;8.596;2023-11-19T02:08:09;2.58;;;1.70;;
55069;SDS011;40967;52.070;8.596;2023-11-19T02:10:39;2.40;;;1.40;;
55069;SDS011;40967;52.070;8.596;2023-11-19T02:13:08;2.60;;;1.40;;
55069;SDS011;40967;52.070;8.596;2023-11-19T02:15:41;2.80;;;1.55;;
55069;SDS011;40967;52.070;8.596;2023-11-19T02:20:56;3.10;;;1.70;;
55069;SDS011;40967;52.070;8.596;2023-11-19T02:23:29;3.83;;;2.00;;
55069;SDS011;40967;52.070;8.596;2023-11-19T02:26:03;3.13;;;1.90;;
55069;SDS011;40967;52.070;8.596;2023-11-19T02:28:40;4.13;;;1.70;;
55069;SDS011;40967;52.070;8.596;2023-11-19T02:31:09;2.95;;;1.75;;
55069;SDS011;40967;52.070;8.596;2023-11-19T02:33:40;5.78;;;3.22;;
55069;SDS011;40967;52.070;8.596;2023-11-19T02:36:28;5.43;;;2.50;;
55069;SDS011;40967;52.070;8.596;2023-11-19T02:38:54;3.45;;;2.20;;
55069;SDS011;40967;52.070;8.596;2023-11-19T02:41:21;4.68;;;2.30;;
55069;SDS011;40967;52.070;8.596;2023-11-19T02:43:51;3.58;;;2.15;;
55069;SDS011;40967;52.070;8.596;2023-11-19T02:46:28;4.32;;;2.03;;
55069;SDS011;40967;52.070;8.596;2023-11-19T02:51:58;3.17;;;2.03;;
55069;SDS011;40967;52.070;8.596;2023-11-19T02:54:30;3.50;;;2.20;;
55069;SDS011;40967;52.070;8.596;2023-11-19T02:57:00;4.35;;;2.78;;
55069;SDS011;40967;52.070;8.596;2023-11-19T02:59:31;4.68;;;2.78;;
55069;SDS011;40967;52.070;8.596;2023-11-19T03:02:04;6.22;;;4.15;;
55069;SDS011;40967;52.070;8.596;2023-11-19T03:04:31;5.20;;;3.28;;
55069;SDS011;40967;52.070;8.596;2023-11-19T03:06:58;6.57;;;4.00;;
55069;SDS011;40967;52.070;8.596;2023-11-19T03:09:26;6.07;;;3.80;;
55069;SDS011;40967;52.070;8.596;2023-11-19T03:11:57;5.50;;;3.60;;
55069;SDS011;40967;52.070;8.596;2023-11-19T03:14:25;6.57;;;4.30;;
55069;SDS011;40967;52.070;8.596;2023-11-19T03:16:54;6.35;;;4.22;;
55069;SDS011;40967;52.070;8.596;2023-11-19T03:19:21;6.85;;;4.30;;
55069;SDS011;40967;52.070;8.596;2023-11-19T03:21:59;5.82;;;3.80;;
55069;SDS011;40967;52.070;8.596;2023-11-19T03:24:36;5.05;;;3.25;;
55069;SDS011;40967;52.070;8.596;2023-11-19T03:27:08;5.25;;;3.35;;
55069;SDS011;40967;52.070;8.596;2023-11-19T03:29:37;4.90;;;3.10;;
55069;SDS011;40967;52.070;8.596;2023-11-19T03:32:06;4.95;;;3.00;;
55069;SDS011;40967;52.070;8.596;2023-11-19T03:34:33;6.15;;;3.78;;
55069;SDS011;40967;52.070;8.596;2023-11-19T03:37:14;6.35;;;4.18;;
55069;SDS011;40967;52.070;8.596;2023-11-19T03:40:04;6.23;;;4.67;;
55069;SDS011;40967;52.070;8.596;2023-11-19T03:42:37;5.70;;;4.00;;
55069;SDS011;40967;52.070;8.596;2023-11-19T03:45:05;6.30;;;4.47;;
55069;SDS011;40967;52.070;8.596;2023-11-19T03:47:42;6.88;;;4.85;;
55069;SDS011;40967;52.070;8.596;2023-11-19T03:50:09;6.30;;;4.28;;
55069;SDS011;40967;52.070;8.596;2023-11-19T03:52:36;5.88;;;4.40;;
55069;SDS011;40967;52.070;8.596;2023-11-19T03:55:03;5.38;;;3.90;;
55069;SDS011;40967;52.070;8.596;2023-11-19T03:57:33;4.97;;;3.58;;
55069;SDS011;40967;52.070;8.596;2023-11-19T04:00:00;5.10;;;3.50;;
55069;SDS011;40967;52.070;8.596;2023-11-19T04:02:32;5.80;;;4.18;;
55069;SDS011;40967;52.070;8.596;2023-11-19T04:05:04;5.20;;;3.85;;
55069;SDS011;40967;52.070;8.596;2023-11-19T04:07:31;5.80;;;4.30;;
55069;SDS011;40967;52.070;8.596;2023-11-19T04:09:58;6.60;;;4.80;;
55069;SDS011;40967;52.070;8.596;2023-11-19T04:12:25;7.60;;;5.27;;
55069;SDS011;40967;52.070;8.596;2023-11-19T04:14:54;6.80;;;5.00;;
55069;SDS011;40967;52.070;8.596;2023-11-19T04:18:00;10.15;;;7.60;;
55069;SDS011;40967;52.070;8.596;2023-11-19T04:20:51;13.75;;;8.32;;
55069;SDS011;40967;52.070;8.596;2023-11-19T04:23:18;9.95;;;7.38;;
55069;SDS011;40967;52.070;8.596;2023-11-19T04:25:44;8.52;;;6.28;;
55069;SDS011;40967;52.070;8.596;2023-11-19T04:28:14;9.25;;;5.60;;
55069;SDS011;40967;52.070;8.596;2023-11-19T04:30:41;8.13;;;5.22;;
55069;SDS011;40967;52.070;8.596;2023-11-19T04:33:07;7.05;;;5.07;;
55069;SDS011;40967;52.070;8.596;2023-11-19T04:35:34;7.43;;;5.20;;
55069;SDS011;40967;52.070;8.596;2023-11-19T04:38:03;10.13;;;4.88;;
55069;SDS011;40967;52.070;8.596;2023-11-19T04:40:30;7.00;;;4.57;;
55069;SDS011;40967;52.070;8.596;2023-11-19T04:42:59;8.20;;;5.05;;
55069;SDS011;40967;52.070;8.596;2023-11-19T04:45:26;11.53;;;6.17;;
55069;SDS011;40967;52.070;8.596;2023-11-19T04:47:53;10.52;;;5.47;;
55069;SDS011;40967;52.070;8.596;2023-11-19T04:50:20;14.43;;;6.57;;
55069;SDS011;40967;52.070;8.596;2023-11-19T04:52:46;11.90;;;6.18;;
55069;SDS011;40967;52.070;8.596;2023-11-19T04:55:15;10.55;;;5.25;;
55069;SDS011;40967;52.070;8.596;2023-11-19T04:57:43;9.70;;;4.93;;
55069;SDS011;40967;52.070;8.596;2023-11-19T05:00:10;9.37;;;4.73;;
55069;SDS011;40967;52.070;8.596;2023-11-19T05:02:52;9.40;;;4.23;;
55069;SDS011;40967;52.070;8.596;2023-11-19T05:05:22;9.15;;;3.78;;
55069;SDS011;40967;52.070;8.596;2023-11-19T05:07:48;10.27;;;3.50;;
55069;SDS011;40967;52.070;8.596;2023-11-19T05:10:19;8.57;;;3.30;;
55069;SDS011;40967;52.070;8.596;2023-11-19T05:12:46;11.23;;;3.70;;
55069;SDS011;40967;52.070;8.596;2023-11-19T05:15:12;9.07;;;3.20;;
55069;SDS011;40967;52.070;8.596;2023-11-19T05:17:39;12.10;;;3.20;;
55069;SDS011;40967;52.070;8.596;2023-11-19T05:20:06;13.98;;;3.80;;
55069;SDS011;40967;52.070;8.596;2023-11-19T05:22:38;9.35;;;2.70;;
55069;SDS011;40967;52.070;8.596;2023-11-19T05:25:06;13.77;;;3.33;;
55069;SDS011;40967;52.070;8.596;2023-11-19T05:27:35;13.32;;;3.15;;
55069;SDS011;40967;52.070;8.596;2023-11-19T05:30:02;7.50;;;2.53;;
55069;SDS011;40967;52.070;8.596;2023-11-19T05:32:31;14.40;;;2.90;;
55069;SDS011;40967;52.070;8.596;2023-11-19T05:34:58;9.50;;;2.70;;
55069;SDS011;40967;52.070;8.596;2023-11-19T05:37:28;13.45;;;3.20;;
55069;SDS011;40967;52.070;8.596;2023-11-19T05:39:55;10.50;;;2.93;;
55069;SDS011;40967;52.070;8.596;2023-11-19T05:42:24;8.63;;;2.25;;
55069;SDS011;40967;52.070;8.596;2023-11-19T05:44:53;11.52;;;2.53;;
55069;SDS011;40967;52.070;8.596;2023-11-19T05:47:20;9.15;;;2.72;;
55069;SDS011;40967;52.070;8.596;2023-11-19T05:49:47;14.75;;;2.97;;
55069;SDS011;40967;52.070;8.596;2023-11-19T05:52:17;7.97;;;2.03;;
55069;SDS011;40967;52.070;8.596;2023-11-19T05:54:44;11.10;;;2.50;;
55069;SDS011;40967;52.070;8.596;2023-11-19T05:57:15;10.65;;;2.33;;
55069;SDS011;40967;52.070;8.596;2023-11-19T05:59:53;9.57;;;2.65;;
55069;SDS011;40967;52.070;8.596;2023-11-19T06:02:26;5.60;;;1.88;;
55069;SDS011;40967;52.070;8.596;2023-11-19T06:10:23;8.80;;;3.08;;
55069;SDS011;40967;52.070;8.596;2023-11-19T06:13:04;11.30;;;2.88;;
55069;SDS011;40967;52.070;8.596;2023-11-19T06:15:37;14.80;;;3.60;;
55069;SDS011;40967;52.070;8.596;2023-11-19T06:18:11;12.70;;;3.05;;
55069;SDS011;40967;52.070;8.596;2023-11-19T06:20:40;14.95;;;4.47;;
55069;SDS011;40967;52.070;8.596;2023-11-19T06:23:09;14.57;;;3.65;;
55069;SDS011;40967;52.070;8.596;2023-11-19T06:25:39;16.03;;;3.40;;
55069;SDS011;40967;52.070;8.596;2023-11-19T06:28:07;13.03;;;3.73;;
55069;SDS011;40967;52.070;8.596;2023-11-19T06:30:34;16.48;;;4.00;;
55069;SDS011;40967;52.070;8.596;2023-11-19T06:33:04;12.60;;;3.58;;
55069;SDS011;40967;52.070;8.596;2023-11-19T06:35:31;21.27;;;3.80;;
55069;SDS011;40967;52.070;8.596;2023-11-19T06:38:02;10.52;;;3.17;;
55069;SDS011;40967;52.070;8.596;2023-11-19T06:40:30;20.40;;;4.18;;
55069;SDS011;40967;52.070;8.596;2023-11-19T06:42:58;9.55;;;3.08;;
55069;SDS011;40967;52.070;8.596;2023-11-19T06:45:28;13.20;;;3.13;;
55069;SDS011;40967;52.070;8.596;2023-11-19T06:48:12;13.75;;;4.40;;
55069;SDS011;40967;52.070;8.596;2023-11-19T06:50:43;24.33;;;6.20;;
55069;SDS011;40967;52.070;8.596;2023-11-19T06:53:11;22.67;;;4.97;;
55069;SDS011;40967;52.070;8.596;2023-11-19T06:55:43;16.08;;;5.43;;
55069;SDS011;40967;52.070;8.596;2023-11-19T06:58:25;17.35;;;5.85;;
55069;SDS011;40967;52.070;8.596;2023-11-19T07:01:00;14.57;;;4.85;;
55069;SDS011;40967;52.070;8.596;2023-11-19T07:03:29;11.95;;;3.67;;
55069;SDS011;40967;52.070;8.596;2023-11-19T07:05:56;13.05;;;3.60;;
55069;SDS011;40967;52.070;8.596;2023-11-19T07:08:25;15.38;;;3.85;;
55069;SDS011;40967;52.070;8.596;2023-11-19T07:10:52;13.10;;;3.27;;
55069;SDS011;40967;52.070;8.596;2023-11-19T07:13:22;15.45;;;3.55;;
55069;SDS011;40967;52.070;8.596;2023-11-19T07:15:49;17.02;;;3.70;;
55069;SDS011;40967;52.070;8.596;2023-11-19T07:18:33;23.48;;;4.32;;
55069;SDS011;40967;52.070;8.596;2023-11-19T07:21:03;14.60;;;3.55;;
55069;SDS011;40967;52.070;8.596;2023-11-19T07:23:41;10.55;;;2.75;;
55069;SDS011;40967;52.070;8.596;2023-11-19T07:26:15;9.43;;;2.80;;
55069;SDS011;40967;52.070;8.596;2023-11-19T07:28:42;9.48;;;2.50;;
55069;SDS011;40967;52.070;8.596;2023-11-19T07:31:10;10.05;;;2.65;;
55069;SDS011;40967;52.070;8.596;2023-11-19T07:33:55;13.30;;;3.13;;
55069;SDS011;40967;52.070;8.596;2023-11-19T07:36:29;18.75;;;3.88;;
55069;SDS011;40967;52.070;8.596;2023-11-19T07:39:05;12.15;;;3.55;;
55069;SDS011;40967;52.070;8.596;2023-11-19T07:41:36;14.95;;;4.20;;
55069;SDS011;40967;52.070;8.596;2023-11-19T07:44:03;14.63;;;3.50;;
55069;SDS011;40967;52.070;8.596;2023-11-19T07:46:33;14.18;;;3.17;;
55069;SDS011;40967;52.070;8.596;2023-11-19T07:49:01;17.48;;;3.38;;
55069;SDS011;40967;52.070;8.596;2023-11-19T07:51:29;15.48;;;3.55;;
55069;SDS011;40967;52.070;8.596;2023-11-19T07:53:57;11.95;;;2.85;;
55069;SDS011;40967;52.070;8.596;2023-11-19T07:56:25;16.63;;;4.50;;
55069;SDS011;40967;52.070;8.596;2023-11-19T07:58:54;20.23;;;4.35;;
55069;SDS011;40967;52.070;8.596;2023-11-19T08:01:21;21.70;;;4.40;;
55069;SDS011;40967;52.070;8.596;2023-11-19T08:03:49;22.98;;;4.40;;
55069;SDS011;40967;52.070;8.596;2023-11-19T08:06:29;24.98;;;5.00;;
55069;SDS011;40967;52.070;8.596;2023-11-19T08:08:58;17.60;;;4.20;;
55069;SDS011;40967;52.070;8.596;2023-11-19T08:11:27;20.80;;;4.03;;
55069;SDS011;40967;52.070;8.596;2023-11-19T08:13:54;23.70;;;5.23;;
55069;SDS011;40967;52.070;8.596;2023-11-19T08:16:24;28.83;;;6.55;;
55069;SDS011;40967;52.070;8.596;2023-11-19T08:18:57;19.67;;;5.03;;
55069;SDS011;40967;52.070;8.596;2023-11-19T08:21:31;18.75;;;4.13;;
55069;SDS011;40967;52.070;8.596;2023-11-19T08:24:11;23.43;;;5.90;;
55069;SDS011;40967;52.070;8.596;2023-11-19T08:26:38;29.60;;;5.75;;
55069;SDS011;40967;52.070;8.596;2023-11-19T08:29:19;17.95;;;4.35;;
55069;SDS011;40967;52.070;8.596;2023-11-19T08:31:55;24.20;;;4.82;;
55069;SDS011;40967;52.070;8.596;2023-11-19T08:34:25;21.70;;;4.85;;
55069;SDS011;40967;52.070;8.596;2023-11-19T08:39:55;14.93;;;3.70;;
55069;SDS011;40967;52.070;8.596;2023-11-19T08:42:23;16.80;;;3.90;;
55069;SDS011;40967;52.070;8.596;2023-11-19T08:44:50;17.90;;;3.67;;
55069;SDS011;40967;52.070;8.596;2023-11-19T08:47:20;19.67;;;4.20;;
55069;SDS011;40967;52.070;8.596;2023-11-19T08:49:48;25.90;;;4.43;;
55069;SDS011;40967;52.070;8.596;2023-11-19T08:52:22;22.73;;;4.68;;
55069;SDS011;40967;52.070;8.596;2023-11-19T08:54:51;16.35;;;4.15;;
55069;SDS011;40967;52.070;8.596;2023-11-19T08:57:20;12.90;;;3.58;;
55069;SDS011;40967;52.070;8.596;2023-11-19T08:59:53;14.73;;;3.67;;
55069;SDS011;40967;52.070;8.596;2023-11-19T09:02:29;18.83;;;4.10;;
55069;SDS011;40967;52.070;8.596;2023-11-19T09:05:01;14.35;;;3.60;;
55069;SDS011;40967;52.070;8.596;2023-11-19T09:07:45;14.98;;;3.95;;
55069;SDS011;40967;52.070;8.596;2023-11-19T09:13:06;15.60;;;3.40;;
55069;SDS011;40967;52.070;8.596;2023-11-19T09:15:37;12.85;;;3.00;;
55069;SDS011;40967;52.070;8.596;2023-11-19T09:18:10;9.23;;;2.83;;
55069;SDS011;40967;52.070;8.596;2023-11-19T09:20:38;11.73;;;3.40;;
55069;SDS011;40967;52.070;8.596;2023-11-19T09:23:07;21.88;;;5.32;;
55069;SDS011;40967;52.070;8.596;2023-11-19T09:25:37;17.95;;;4.82;;
55069;SDS011;40967;52.070;8.596;2023-11-19T09:28:05;19.77;;;4.20;;
55069;SDS011;40967;52.070;8.596;2023-11-19T09:30:33;25.10;;;5.75;;
55069;SDS011;40967;52.070;8.596;2023-11-19T09:33:19;25.45;;;4.82;;
55069;SDS011;40967;52.070;8.596;2023-11-19T09:35:54;16.98;;;3.75;;
55069;SDS011;40967;52.070;8.596;2023-11-19T09:38:25;22.98;;;5.03;;
55069;SDS011;40967;52.070;8.596;2023-11-19T09:40:52;14.95;;;3.75;;
55069;SDS011;40967;52.070;8.596;2023-11-19T09:43:19;25.20;;;4.10;;
55069;SDS011;40967;52.070;8.596;2023-11-19T09:45:48;18.05;;;4.03;;
55069;SDS011;40967;52.070;8.596;2023-11-19T09:48:21;21.67;;;4.90;;
55069;SDS011;40967;52.070;8.596;2023-11-19T09:50:57;12.65;;;3.17;;
55069;SDS011;40967;52.070;8.596;2023-11-19T09:53:25;16.75;;;3.92;;
55069;SDS011;40967;52.070;8.596;2023-11-19T09:56:04;16.42;;;3.75;;
55069;SDS011;40967;52.070;8.596;2023-11-19T09:58:38;15.50;;;3.80;;
55069;SDS011;40967;52.070;8.596;2023-11-19T10:01:06;16.02;;;4.40;;
55069;SDS011;40967;52.070;8.596;2023-11-19T10:03:39;26.52;;;4.68;;
55069;SDS011;40967;52.070;8.596;2023-11-19T10:06:12;16.60;;;3.58;;
55069;SDS011;40967;52.070;8.596;2023-11-19T10:08:51;11.73;;;2.97;;
55069;SDS011;40967;52.070;8.596;2023-11-19T10:11:19;13.23;;;3.17;;
55069;SDS011;40967;52.070;8.596;2023-11-19T10:13:46;9.95;;;2.85;;
55069;SDS011;40967;52.070;8.596;2023-11-19T10:16:15;13.75;;;3.38;;
55069;SDS011;40967;52.070;8.596;2023-11-19T10:18:44;17.08;;;3.63;;
55069;SDS011;40967;52.070;8.596;2023-11-19T10:21:14;17.00;;;3.58;;
55069;SDS011;40967;52.070;8.596;2023-11-19T10:23:49;15.02;;;3.83;;
55069;SDS011;40967;52.070;8.596;2023-11-19T10:26:21;18.48;;;4.05;;
55069;SDS011;40967;52.070;8.596;2023-11-19T10:28:51;12.70;;;3.13;;
55069;SDS011;40967;52.070;8.596;2023-11-19T10:31:19;17.13;;;3.80;;
55069;SDS011;40967;52.070;8.596;2023-11-19T10:33:52;18.20;;;4.18;;
55069;SDS011;40967;52.070;8.596;2023-11-19T10:36:21;13.27;;;3.53;;
55069;SDS011;40967;52.070;8.596;2023-11-19T10:39:01;20.70;;;4.45;;
55069;SDS011;40967;52.070;8.596;2023-11-19T10:41:28;17.77;;;3.88;;
55069;SDS011;40967;52.070;8.596;2023-11-19T10:43:58;18.80;;;4.35;;
55069;SDS011;40967;52.070;8.596;2023-11-19T10:46:38;24.90;;;4.68;;
55069;SDS011;40967;52.070;8.596;2023-11-19T10:49:11;19.55;;;4.10;;
55069;SDS011;40967;52.070;8.596;2023-11-19T10:51:44;16.60;;;4.05;;
55069;SDS011;40967;52.070;8.596;2023-11-19T10:54:18;17.80;;;3.55;;
55069;SDS011;40967;52.070;8.596;2023-11-19T10:56:46;25.83;;;4.90;;
55069;SDS011;40967;52.070;8.596;2023-11-19T10:59:23;21.50;;;4.60;;
55069;SDS011;40967;52.070;8.596;2023-11-19T11:01:53;16.58;;;3.70;;
55069;SDS011;40967;52.070;8.596;2023-11-19T11:04:23;18.08;;;4.15;;
55069;SDS011;40967;52.070;8.596;2023-11-19T11:06:54;23.77;;;4.70;;
55069;SDS011;40967;52.070;8.596;2023-11-19T11:09:27;28.35;;;5.85;;
55069;SDS011;40967;52.070;8.596;2023-11-19T11:12:02;17.50;;;4.40;;
55069;SDS011;40967;52.070;8.596;2023-11-19T11:14:33;11.60;;;3.10;;
55069;SDS011;40967;52.070;8.596;2023-11-19T11:17:18;12.90;;;2.87;;
55069;SDS011;40967;52.070;8.596;2023-11-19T11:19:51;17.10;;;3.40;;
55069;SDS011;40967;52.070;8.596;2023-11-19T11:22:19;14.20;;;3.53;;
55069;SDS011;40967;52.070;8.596;2023-11-19T11:25:01;17.42;;;3.28;;
55069;SDS011;40967;52.070;8.596;2023-11-19T11:30:43;16.05;;;3.72;;
55069;SDS011;40967;52.070;8.596;2023-11-19T11:33:31;21.08;;;4.15;;
55069;SDS011;40967;52.070;8.596;2023-11-19T11:36:11;15.93;;;3.20;;
55069;SDS011;40967;52.070;8.596;2023-11-19T11:38:47;11.40;;;2.60;;
55069;SDS011;40967;52.070;8.596;2023-11-19T11:41:17;21.40;;;4.32;;
55069;SDS011;40967;52.070;8.596;2023-11-19T11:43:48;16.13;;;3.33;;
55069;SDS011;40967;52.070;8.596;2023-11-19T11:49:25;14.13;;;3.03;;
55069;SDS011;40967;52.070;8.596;2023-11-19T11:51:59;11.48;;;3.05;;
55069;SDS011;40967;52.070;8.596;2023-11-19T11:54:29;12.90;;;2.95;;
55069;SDS011;40967;52.070;8.596;2023-11-19T11:57:08;16.50;;;3.35;;
55069;SDS011;40967;52.070;8.596;2023-11-19T11:59:47;21.92;;;4.20;;
55069;SDS011;40967;52.070;8.596;2023-11-19T12:02:21;24.57;;;4.60;;
55069;SDS011;40967;52.070;8.596;2023-11-19T12:04:49;19.67;;;4.38;;
55069;SDS011;40967;52.070;8.596;2023-11-19T12:07:19;21.40;;;4.47;;
55069;SDS011;40967;52.070;8.596;2023-11-19T12:09:52;21.25;;;3.47;;
55069;SDS011;40967;52.070;8.596;2023-11-19T12:12:34;15.00;;;3.50;;
55069;SDS011;40967;52.070;8.596;2023-11-19T12:15:06;14.43;;;3.10;;
55069;SDS011;40967;52.070;8.596;2023-11-19T12:17:37;13.23;;;2.97;;
55069;SDS011;40967;52.070;8.596;2023-11-19T12:20:14;15.55;;;3.22;;
55069;SDS011;40967;52.070;8.596;2023-11-19T12:22:43;18.80;;;4.28;;
55069;SDS011;40967;52.070;8.596;2023-11-19T12:25:14;10.27;;;2.90;;
55069;SDS011;40967;52.070;8.596;2023-11-19T12:27:44;12.07;;;2.80;;
55069;SDS011;40967;52.070;8.596;2023-11-19T12:30:11;17.73;;;3.70;;
55069;SDS011;40967;52.070;8.596;2023-11-19T12:32:46;16.30;;;3.55;;
55069;SDS011;40967;52.070;8.596;2023-11-19T12:35:13;17.98;;;4.00;;
55069;SDS011;40967;52.070;8.596;2023-11-19T12:37:41;12.70;;;3.15;;
55069;SDS011;40967;52.070;8.596;2023-11-19T12:40:11;18.50;;;3.85;;
55069;SDS011;40967;52.070;8.596;2023-11-19T12:42:40;13.25;;;2.85;;
55069;SDS011;40967;52.070;8.596;2023-11-19T12:45:11;10.93;;;3.10;;
55069;SDS011;40967;52.070;8.596;2023-11-19T12:47:38;17.02;;;3.95;;
55069;SDS011;40967;52.070;8.596;2023-11-19T12:50:06;13.27;;;3.33;;
55069;SDS011;40967;52.070;8.596;2023-11-19T12:55:25;18.95;;;4.30;;
55069;SDS011;40967;52.070;8.596;2023-11-19T12:57:55;21.93;;;4.30;;
55069;SDS011;40967;52.070;8.596;2023-11-19T13:00:26;18.65;;;3.85;;
55069;SDS011;40967;52.070;8.596;2023-11-19T13:02:53;17.88;;;3.97;;
55069;SDS011;40967;52.070;8.596;2023-11-19T13:05:26;13.95;;;3.75;;
55069;SDS011;40967;52.070;8.596;2023-11-19T13:08:00;12.75;;;3.75;;
55069;SDS011;40967;52.070;8.596;2023-11-19T13:10:28;21.63;;;5.30;;
55069;SDS011;40967;52.070;8.596;2023-11-19T13:13:05;12.30;;;3.10;;
55069;SDS011;40967;52.070;8.596;2023-11-19T13:15:35;16.80;;;3.33;;
55069;SDS011;40967;52.070;8.596;2023-11-19T13:18:02;12.68;;;3.50;;
55069;SDS011;40967;52.070;8.596;2023-11-19T13:20:29;12.00;;;2.80;;
55069;SDS011;40967;52.070;8.596;2023-11-19T13:22:57;18.02;;;3.85;;
55069;SDS011;40967;52.070;8.596;2023-11-19T13:25:28;14.98;;;3.08;;
55069;SDS011;40967;52.070;8.596;2023-11-19T13:27:59;14.82;;;3.25;;
55069;SDS011;40967;52.070;8.596;2023-11-19T13:30:27;14.80;;;3.10;;
55069;SDS011;40967;52.070;8.596;2023-11-19T13:32:55;20.40;;;4.00;;
55069;SDS011;40967;52.070;8.596;2023-11-19T13:35:22;12.93;;;3.17;;
55069;SDS011;40967;52.070;8.596;2023-11-19T13:37:49;14.95;;;3.53;;
55069;SDS011;40967;52.070;8.596;2023-11-19T13:40:16;17.57;;;3.60;;
55069;SDS011;40967;52.070;8.596;2023-11-19T13:42:44;17.85;;;4.05;;
55069;SDS011;40967;52.070;8.596;2023-11-19T13:45:17;15.43;;;3.55;;
55069;SDS011;40967;52.070;8.596;2023-11-19T13:47:46;18.48;;;3.38;;
55069;SDS011;40967;52.070;8.596;2023-11-19T13:50:14;19.15;;;3.72;;
55069;SDS011;40967;52.070;8.596;2023-11-19T13:52:42;18.35;;;4.00;;
55069;SDS011;40967;52.070;8.596;2023-11-19T13:55:12;21.00;;;4.55;;
55069;SDS011;40967;52.070;8.596;2023-11-19T13:57:40;20.25;;;4.05;;
55069;SDS011;40967;52.070;8.596;2023-11-19T14:00:08;11.27;;;2.70;;
55069;SDS011;40967;52.070;8.596;2023-11-19T14:02:38;12.40;;;2.83;;
55069;SDS011;40967;52.070;8.596;2023-11-19T14:05:05;11.48;;;2.45;;
55069;SDS011;40967;52.070;8.596;2023-11-19T14:07:34;14.40;;;2.97;;
55069;SDS011;40967;52.070;8.596;2023-11-19T14:10:02;16.63;;;3.40;;
55069;SDS011;40967;52.070;8.596;2023-11-19T14:12:30;17.77;;;3.25;;
55069;SDS011;40967;52.070;8.596;2023-11-19T14:15:00;13.00;;;2.80;;
55069;SDS011;40967;52.070;8.596;2023-11-19T14:17:27;11.70;;;2.40;;
55069;SDS011;40967;52.070;8.596;2023-11-19T14:20:09;18.10;;;3.35;;
55069;SDS011;40967;52.070;8.596;2023-11-19T14:22:50;14.50;;;3.30;;
55069;SDS011;40967;52.070;8.596;2023-11-19T14:25:17;16.02;;;3.65;;
55069;SDS011;40967;52.070;8.596;2023-11-19T14:27:46;17.20;;;4.27;;
55069;SDS011;40967;52.070;8.596;2023-11-19T14:30:19;13.05;;;3.28;;
55069;SDS011;40967;52.070;8.596;2023-11-19T14:32:49;15.13;;;3.78;;
55069;SDS011;40967;52.070;8.596;2023-11-19T14:35:16;10.87;;;2.70;;
55069;SDS011;40967;52.070;8.596;2023-11-19T14:37:45;8.77;;;2.65;;
55069;SDS011;40967;52.070;8.596;2023-11-19T14:40:15;8.32;;;2.97;;
55069;SDS011;40967;52.070;8.596;2023-11-19T14:42:42;14.43;;;3.72;;
55069;SDS011;40967;52.070;8.596;2023-11-19T14:45:09;12.77;;;3.53;;
55069;SDS011;40967;52.070;8.596;2023-11-19T14:47:37;14.98;;;3.67;;
55069;SDS011;40967;52.070;8.596;2023-11-19T14:50:06;15.55;;;2.95;;
55069;SDS011;40967;52.070;8.596;2023-11-19T14:52:35;12.18;;;3.03;;
55069;SDS011;40967;52.070;8.596;2023-11-19T14:55:05;10.88;;;2.97;;
55069;SDS011;40967;52.070;8.596;2023-11-19T14:57:36;13.43;;;3.25;;
55069;SDS011;40967;52.070;8.596;2023-11-19T15:00:07;12.02;;;2.78;;
55069;SDS011;40967;52.070;8.596;2023-11-19T15:02:38;14.80;;;3.13;;
55069;SDS011;40967;52.070;8.596;2023-11-19T15:05:06;14.55;;;3.03;;
55069;SDS011;40967;52.070;8.596;2023-11-19T15:07:35;13.55;;;3.35;;
55069;SDS011;40967;52.070;8.596;2023-11-19T15:10:03;15.18;;;3.35;;
55069;SDS011;40967;52.070;8.596;2023-11-19T15:12:36;13.85;;;3.22;;
55069;SDS011;40967;52.070;8.596;2023-11-19T15:15:08;13.15;;;2.28;;
55069;SDS011;40967;52.070;8.596;2023-11-19T15:17:39;14.17;;;2.73;;
55069;SDS011;40967;52.070;8.596;2023-11-19T15:20:06;13.38;;;2.90;;
55069;SDS011;40967;52.070;8.596;2023-11-19T15:22:33;13.20;;;3.50;;
55069;SDS011;40967;52.070;8.596;2023-11-19T15:25:00;11.97;;;3.13;;
55069;SDS011;40967;52.070;8.596;2023-11-19T15:27:28;8.23;;;2.40;;